createdAt,value
2023-05-10T00:01:27.014Z,61.50
2023-05-10T00:03:54.688Z,61.90
2023-05-10T00:06:22.246Z,61.30
2023-05-10T00:08:49.834Z,61.50
2023-05-10T00:11:17.396Z,61.50
2023-05-10T00:13:44.953Z,61.60
2023-05-10T00:16:14.317Z,61.80
2023-05-10T00:18:41.906Z,61.90
2023-05-10T00:21:09.503Z,61.80
2023-05-10T00:23:37.033Z,61.80
2023-05-10T00:26:04.556Z,61.90
2023-05-10T00:28:32.077Z,61.80
2023-05-10T00:30:59.661Z,61.90
2023-05-10T00:33:27.211Z,61.90
2023-05-10T00:35:54.754Z,62.10
2023-05-10T00:38:22.352Z,61.90
2023-05-10T00:40:49.859Z,62.10
2023-05-10T00:43:17.362Z,61.90
2023-05-10T00:45:45.571Z,62.10
2023-05-10T00:48:13.495Z,62.20
2023-05-10T00:50:41.401Z,62.20
2023-05-10T00:53:10.091Z,62.50
2023-05-10T00:55:38.448Z,62.10
2023-05-10T00:58:06.924Z,62.50
2023-05-10T01:00:35.105Z,62.60
2023-05-10T01:03:02.996Z,62.50
2023-05-10T01:05:33.551Z,62.50
2023-05-10T01:08:01.118Z,62.30
2023-05-10T01:10:28.701Z,62.30
2023-05-10T01:12:56.907Z,62.30
2023-05-10T01:15:25.029Z,62.20
2023-05-10T01:17:53.700Z,62.30
2023-05-10T01:20:21.560Z,62.30
2023-05-10T01:23:06.885Z,62.50
2023-05-10T01:26:25.334Z,62.50
2023-05-10T01:29:23.127Z,62.60
2023-05-10T01:32:10.894Z,62.80
2023-05-10T01:34:58.558Z,62.60
2023-05-10T01:37:43.579Z,62.60
2023-05-10T01:40:34.784Z,62.70
2023-05-10T01:43:05.431Z,62.60
2023-05-10T01:45:32.947Z,62.60
2023-05-10T01:48:07.992Z,62.60
2023-05-10T01:50:38.820Z,62.70
2023-05-10T01:53:10.354Z,62.60
2023-05-10T01:55:47.712Z,62.50
2023-05-10T01:58:24.882Z,62.70
2023-05-10T02:00:53.692Z,62.60
2023-05-10T02:03:25.471Z,62.80
2023-05-10T02:05:54.855Z,62.80
2023-05-10T02:08:24.047Z,62.80
2023-05-10T02:10:54.286Z,62.80
2023-05-10T02:13:24.657Z,62.80
2023-05-10T02:15:54.470Z,62.70
2023-05-10T02:18:23.728Z,62.70
2023-05-10T02:20:53.781Z,62.70
2023-05-10T02:23:22.951Z,62.60
2023-05-10T02:25:52.889Z,62.60
2023-05-10T02:28:22.694Z,62.80
2023-05-10T02:30:51.761Z,62.80
2023-05-10T02:33:21.256Z,62.80
2023-05-10T02:35:52.471Z,62.60
2023-05-10T02:38:23.058Z,62.90
2023-05-10T02:40:51.916Z,62.70
2023-05-10T02:43:20.251Z,63.50
2023-05-10T02:45:49.525Z,62.70
2023-05-10T02:48:17.819Z,62.70
2023-05-10T02:50:46.765Z,63.00
2023-05-10T02:53:20.674Z,62.80
2023-05-10T02:55:53.054Z,62.90
2023-05-10T02:58:20.720Z,62.90
2023-05-10T03:00:48.236Z,62.90
2023-05-10T03:03:15.756Z,62.80
2023-05-10T03:05:43.223Z,63.00
2023-05-10T03:08:10.975Z,63.20
2023-05-10T03:10:48.387Z,63.10
2023-05-10T03:13:36.674Z,62.90
2023-05-10T03:16:17.315Z,62.90
2023-05-10T03:19:20.084Z,63.70
2023-05-10T03:21:53.845Z,63.10
2023-05-10T03:24:24.599Z,63.00
2023-05-10T03:26:54.849Z,63.10
2023-05-10T03:29:23.488Z,63.10
2023-05-10T03:31:51.316Z,63.10
2023-05-10T03:34:24.390Z,63.10
2023-05-10T03:36:51.925Z,63.20
2023-05-10T03:39:19.573Z,63.20
2023-05-10T03:41:47.174Z,63.90
2023-05-10T03:44:14.651Z,63.40
2023-05-10T03:46:42.206Z,63.20
2023-05-10T03:49:09.748Z,63.30
2023-05-10T03:51:37.788Z,63.10
2023-05-10T03:54:05.601Z,63.40
2023-05-10T03:56:33.813Z,63.40
2023-05-10T03:59:01.853Z,63.20
2023-05-10T04:01:29.343Z,63.50
2023-05-10T04:03:57.009Z,63.30
2023-05-10T04:06:24.632Z,63.50
2023-05-10T04:08:52.211Z,63.50
2023-05-10T04:11:19.656Z,63.70
2023-05-10T04:13:47.213Z,63.70
2023-05-10T04:16:14.717Z,63.70
2023-05-10T04:18:42.299Z,63.70
2023-05-10T04:21:15.908Z,63.70
2023-05-10T04:23:43.457Z,64.30
2023-05-10T04:26:11.019Z,63.60
2023-05-10T04:28:41.506Z,63.80
2023-05-10T04:31:11.220Z,64.20
2023-05-10T04:33:38.892Z,64.20
2023-05-10T04:36:06.958Z,64.40
2023-05-10T04:38:34.465Z,64.40
2023-05-10T04:41:12.186Z,64.50
2023-05-10T04:43:39.920Z,64.50
2023-05-10T04:46:08.693Z,64.70
2023-05-10T04:48:36.417Z,64.60
2023-05-10T04:51:05.216Z,64.90
2023-05-10T04:53:32.877Z,64.80
2023-05-10T04:56:00.433Z,65.50
2023-05-10T04:58:27.968Z,65.60
2023-05-10T05:00:55.573Z,65.00
2023-05-10T05:03:23.512Z,65.00
2023-05-10T05:05:51.104Z,65.00
2023-05-10T05:08:18.716Z,65.00
2023-05-10T05:10:46.289Z,65.00
2023-05-10T05:13:14.380Z,65.10
2023-05-10T05:15:42.087Z,65.10
2023-05-10T05:18:09.752Z,65.20
2023-05-10T05:20:37.385Z,65.30
2023-05-10T05:23:04.848Z,65.40
2023-05-10T05:25:32.393Z,65.40
2023-05-10T05:27:59.952Z,65.70
2023-05-10T05:30:27.526Z,65.70
2023-05-10T05:32:55.012Z,65.80
2023-05-10T05:35:22.542Z,65.80
2023-05-10T05:37:50.106Z,65.90
2023-05-10T05:40:17.656Z,66.20
2023-05-10T05:42:45.260Z,66.00
2023-05-10T05:45:14.506Z,66.20
2023-05-10T05:47:42.646Z,66.30
2023-05-10T05:50:10.785Z,66.40
2023-05-10T05:52:38.455Z,66.30
2023-05-10T05:55:09.311Z,66.20
2023-05-10T05:57:36.855Z,66.40
2023-05-10T06:00:04.858Z,66.50
2023-05-10T06:02:32.406Z,66.80
2023-05-10T06:05:00.030Z,66.60
2023-05-10T06:07:27.848Z,66.70
2023-05-10T06:09:55.402Z,66.80
2023-05-10T06:12:22.874Z,67.10
2023-05-10T06:14:50.347Z,67.20
2023-05-10T06:17:17.891Z,67.30
2023-05-10T06:19:45.400Z,67.20
2023-05-10T06:22:12.985Z,67.00
2023-05-10T06:24:40.513Z,67.40
2023-05-10T06:27:08.141Z,67.40
2023-05-10T06:29:35.651Z,67.60
2023-05-10T06:32:03.543Z,67.60
2023-05-10T06:34:31.071Z,67.40
2023-05-10T06:36:58.584Z,67.30
2023-05-10T06:39:26.526Z,67.60
2023-05-10T06:41:54.032Z,67.50
2023-05-10T06:44:21.535Z,67.50
2023-05-10T06:46:49.114Z,67.60
2023-05-10T06:49:16.971Z,67.60
2023-05-10T06:51:44.545Z,67.60
2023-05-10T06:54:12.022Z,67.60
2023-05-10T06:56:39.499Z,67.70
2023-05-10T06:59:07.084Z,67.60
2023-05-10T07:01:34.837Z,67.60
2023-05-10T07:04:02.530Z,67.70
2023-05-10T07:06:33.776Z,67.70
2023-05-10T07:09:02.108Z,67.70
2023-05-10T07:11:29.934Z,67.60
2023-05-10T07:13:57.504Z,67.70
2023-05-10T07:16:24.997Z,67.70
2023-05-10T07:18:54.239Z,68.00
2023-05-10T07:21:22.236Z,68.10
2023-05-10T07:23:49.886Z,68.10
2023-05-10T07:26:17.879Z,68.10
2023-05-10T07:28:45.430Z,68.10
2023-05-10T07:31:12.928Z,68.20
2023-05-10T07:33:40.559Z,68.10
2023-05-10T07:36:08.331Z,68.20
2023-05-10T07:38:35.922Z,68.30
2023-05-10T07:41:03.465Z,68.30
2023-05-10T07:43:30.968Z,68.40
2023-05-10T07:45:59.043Z,68.50
2023-05-10T07:48:28.812Z,68.40
2023-05-10T07:50:56.701Z,68.50
2023-05-10T07:53:24.342Z,68.50
2023-05-10T07:55:53.049Z,69.00
2023-05-10T07:58:23.020Z,68.50
2023-05-10T08:00:50.866Z,68.50
2023-05-10T08:03:18.623Z,68.40
2023-05-10T08:05:46.193Z,68.50
2023-05-10T08:08:13.661Z,68.50
2023-05-10T08:10:41.170Z,68.60
2023-05-10T08:13:08.712Z,68.50
2023-05-10T08:15:36.453Z,68.50
2023-05-10T08:18:04.045Z,68.50
2023-05-10T08:20:31.612Z,68.40
2023-05-10T08:22:59.120Z,68.50
2023-05-10T08:25:26.982Z,68.60
2023-05-10T08:27:54.441Z,68.60
2023-05-10T08:30:22.032Z,68.80
2023-05-10T08:32:49.634Z,68.80
2023-05-10T08:35:17.656Z,68.90
2023-05-10T08:37:45.334Z,68.90
2023-05-10T08:40:13.671Z,69.00
2023-05-10T08:42:44.731Z,69.00
2023-05-10T08:45:12.792Z,69.10
2023-05-10T08:47:40.942Z,69.10
2023-05-10T08:50:08.891Z,69.20
2023-05-10T08:52:41.656Z,69.20
2023-05-10T08:55:09.390Z,69.30
2023-05-10T08:57:37.714Z,69.30
2023-05-10T09:00:05.826Z,69.20
2023-05-10T09:02:33.384Z,69.20
2023-05-10T09:05:01.217Z,69.30
2023-05-10T09:07:29.225Z,69.30
2023-05-10T09:09:57.827Z,69.40
2023-05-10T09:12:25.600Z,69.30
2023-05-10T09:14:57.156Z,69.30
2023-05-10T09:17:26.249Z,69.40
2023-05-10T09:20:05.271Z,69.40
2023-05-10T09:22:33.418Z,69.40
2023-05-10T09:25:12.352Z,69.40
2023-05-10T09:27:41.897Z,69.50
2023-05-10T09:30:10.380Z,69.50
2023-05-10T09:32:51.304Z,69.60
2023-05-10T09:35:20.732Z,69.60
2023-05-10T09:37:50.326Z,69.70
2023-05-10T09:40:22.974Z,69.60
2023-05-10T09:42:59.200Z,69.60
2023-05-10T09:45:28.809Z,69.70
2023-05-10T09:47:56.966Z,69.70
2023-05-10T09:50:25.059Z,69.80
2023-05-10T09:52:59.812Z,69.70
2023-05-10T09:55:40.407Z,70.00
2023-05-10T09:58:11.939Z,70.00
2023-05-10T10:00:42.272Z,69.80
2023-05-10T10:03:17.588Z,69.80
2023-05-10T10:05:45.755Z,69.90
2023-05-10T10:08:16.970Z,69.90
2023-05-10T10:10:47.721Z,69.80
2023-05-10T10:13:16.812Z,69.90
2023-05-10T10:15:45.779Z,69.90
2023-05-10T10:18:16.742Z,69.90
2023-05-10T10:20:44.711Z,69.80
2023-05-10T10:23:12.283Z,69.80
2023-05-10T10:25:40.625Z,69.90
2023-05-10T10:28:31.632Z,69.90
2023-05-10T10:31:13.759Z,69.80
2023-05-10T10:34:08.334Z,69.90
2023-05-10T10:36:47.208Z,70.00
2023-05-10T10:39:15.644Z,69.90
2023-05-10T10:41:53.396Z,70.00
2023-05-10T10:44:23.956Z,70.20
2023-05-10T10:47:26.051Z,70.30
2023-05-10T10:50:08.078Z,70.20
2023-05-10T10:52:40.286Z,70.30
2023-05-10T10:55:19.349Z,70.40
2023-05-10T10:58:01.645Z,70.30
2023-05-10T11:00:31.970Z,70.30
2023-05-10T11:03:03.849Z,70.30
2023-05-10T11:05:35.385Z,70.30
2023-05-10T11:08:10.113Z,70.50
2023-05-10T11:10:37.950Z,70.50
2023-05-10T11:13:07.599Z,70.50
2023-05-10T11:15:40.351Z,70.50
2023-05-10T11:18:22.651Z,70.60
2023-05-10T11:21:06.576Z,71.20
2023-05-10T11:23:50.365Z,70.50
2023-05-10T11:26:18.545Z,70.70
2023-05-10T11:28:50.239Z,70.80
2023-05-10T11:31:19.270Z,70.60
2023-05-10T11:33:52.430Z,70.50
2023-05-10T11:36:22.620Z,70.30
2023-05-10T11:38:50.382Z,70.30
2023-05-10T11:41:19.902Z,70.20
2023-05-10T11:43:50.182Z,69.90
2023-05-10T11:46:21.536Z,70.00
2023-05-10T11:48:54.046Z,69.90
2023-05-10T11:51:23.585Z,70.00
2023-05-10T11:53:55.896Z,69.90
2023-05-10T11:56:24.720Z,70.00
2023-05-10T11:58:58.909Z,70.20
2023-05-10T12:01:27.850Z,70.20
2023-05-10T12:04:00.283Z,70.50
2023-05-10T12:06:30.300Z,70.50
2023-05-10T12:08:57.861Z,70.80
2023-05-10T12:11:29.919Z,71.00
2023-05-10T12:13:57.889Z,71.10
2023-05-10T12:16:29.583Z,71.20
2023-05-10T12:19:01.913Z,71.30
2023-05-10T12:21:32.002Z,71.50
2023-05-10T12:24:06.505Z,71.50
2023-05-10T12:26:34.272Z,71.60
2023-05-10T12:29:15.368Z,71.80
2023-05-10T12:31:57.057Z,71.90
2023-05-10T12:34:31.560Z,72.10
2023-05-10T12:36:59.637Z,72.20
2023-05-10T12:39:27.436Z,72.50
2023-05-10T12:41:55.107Z,72.60
2023-05-10T12:44:22.725Z,72.60
2023-05-10T12:46:50.273Z,72.80
2023-05-10T12:49:20.135Z,73.00
2023-05-10T12:51:47.684Z,73.30
2023-05-10T12:54:15.390Z,73.40
2023-05-10T12:56:43.938Z,73.50
2023-05-10T12:59:11.484Z,73.60
2023-05-10T13:01:39.141Z,73.60
2023-05-10T13:04:06.891Z,73.60
2023-05-10T13:06:34.457Z,73.70
2023-05-10T13:09:02.021Z,73.70
2023-05-10T13:11:29.692Z,73.80
2023-05-10T13:13:57.238Z,73.90
2023-05-10T13:16:24.912Z,74.10
2023-05-10T13:18:52.444Z,74.20
2023-05-10T13:21:20.041Z,74.20
2023-05-10T13:23:48.049Z,74.30
2023-05-10T13:26:15.739Z,74.40
2023-05-10T13:28:43.405Z,74.40
2023-05-10T13:31:11.628Z,74.50
2023-05-10T13:33:39.174Z,74.40
2023-05-10T13:36:07.669Z,74.40
2023-05-10T13:38:36.036Z,74.40
2023-05-10T13:41:03.554Z,74.40
2023-05-10T13:43:31.195Z,74.50
2023-05-10T13:45:58.808Z,74.50
2023-05-10T13:48:26.384Z,74.40
2023-05-10T13:50:53.918Z,74.50
2023-05-10T13:53:22.206Z,74.50
2023-05-10T13:55:50.018Z,74.50
2023-05-10T13:58:17.587Z,74.60
2023-05-10T14:00:46.576Z,74.60
2023-05-10T14:03:14.340Z,74.70
2023-05-10T14:05:42.214Z,74.60
2023-05-10T14:08:11.164Z,74.80
2023-05-10T14:10:39.274Z,74.70
2023-05-10T14:13:07.565Z,74.90
2023-05-10T14:15:35.106Z,74.80
2023-05-10T14:18:02.991Z,75.50
2023-05-10T14:20:30.685Z,74.90
2023-05-10T14:22:58.251Z,75.00
2023-05-10T14:25:26.133Z,75.00
2023-05-10T14:27:55.812Z,75.10
2023-05-10T14:30:23.342Z,75.00
2023-05-10T14:32:51.069Z,75.00
2023-05-10T14:35:19.931Z,75.10
2023-05-10T14:37:47.898Z,75.20
2023-05-10T14:40:16.498Z,75.40
2023-05-10T14:42:44.468Z,75.50
2023-05-10T14:45:13.375Z,75.50
2023-05-10T14:47:41.201Z,75.70
2023-05-10T14:50:09.471Z,75.60
2023-05-10T14:52:37.662Z,75.60
2023-05-10T14:55:06.647Z,75.80
2023-05-10T14:57:34.576Z,75.70
2023-05-10T15:00:02.871Z,75.70
2023-05-10T15:02:32.643Z,75.80
2023-05-10T15:05:00.674Z,75.80
2023-05-10T15:07:28.777Z,75.80
2023-05-10T15:09:56.288Z,75.90
2023-05-10T15:12:23.903Z,76.00
2023-05-10T15:14:51.450Z,76.00
2023-05-10T15:17:19.075Z,75.90
2023-05-10T15:19:46.589Z,75.90
2023-05-10T15:22:14.146Z,75.90
2023-05-10T15:24:41.808Z,75.90
2023-05-10T15:27:09.947Z,76.00
2023-05-10T15:29:37.468Z,76.00
2023-05-10T15:32:05.233Z,76.10
2023-05-10T15:34:34.911Z,76.00
2023-05-10T15:37:03.272Z,76.20
2023-05-10T15:39:31.326Z,76.20
2023-05-10T15:41:58.973Z,76.20
2023-05-10T15:44:26.492Z,76.20
2023-05-10T15:46:54.129Z,76.20
2023-05-10T15:49:21.958Z,76.20
2023-05-10T15:51:49.675Z,76.10
2023-05-10T15:54:17.272Z,76.20
2023-05-10T15:56:44.763Z,76.20
2023-05-10T15:59:12.274Z,76.20
2023-05-10T16:01:39.915Z,76.30
2023-05-10T16:04:07.372Z,76.60
2023-05-10T16:06:36.069Z,76.50
2023-05-10T16:09:03.828Z,76.80
2023-05-10T16:11:31.654Z,76.80
2023-05-10T16:13:59.189Z,76.90
2023-05-10T16:16:26.887Z,77.00
2023-05-10T16:18:54.592Z,77.20
2023-05-10T16:21:22.600Z,77.30
2023-05-10T16:23:50.167Z,77.10
2023-05-10T16:26:17.795Z,77.30
2023-05-10T16:28:45.310Z,77.20
2023-05-10T16:31:13.021Z,77.30
2023-05-10T16:33:40.786Z,77.40
2023-05-10T16:36:08.384Z,77.20
2023-05-10T16:38:35.948Z,77.30
2023-05-10T16:41:03.942Z,77.60
2023-05-10T16:43:33.131Z,77.50
2023-05-10T16:46:01.029Z,77.50
2023-05-10T16:48:28.592Z,77.70
2023-05-10T16:50:56.186Z,78.10
2023-05-10T16:53:23.722Z,77.40
2023-05-10T16:55:51.308Z,77.60
2023-05-10T16:58:18.827Z,77.50
2023-05-10T17:00:47.439Z,77.50
2023-05-10T17:03:15.929Z,77.80
2023-05-10T17:05:43.793Z,77.50
2023-05-10T17:08:12.045Z,77.60
2023-05-10T17:10:42.854Z,77.60
2023-05-10T17:13:11.282Z,77.70
2023-05-10T17:15:39.807Z,77.90
2023-05-10T17:18:08.309Z,78.00
2023-05-10T17:20:36.963Z,78.20
2023-05-10T17:23:04.847Z,78.10
2023-05-10T17:25:32.447Z,78.10
2023-05-10T17:28:00.845Z,78.20
2023-05-10T17:30:29.240Z,78.10
2023-05-10T17:32:56.910Z,78.30
2023-05-10T17:35:25.320Z,78.20
2023-05-10T17:37:53.097Z,78.20
2023-05-10T17:40:20.880Z,78.40
2023-05-10T17:42:48.961Z,78.30
2023-05-10T17:45:20.545Z,78.30
2023-05-10T17:47:48.430Z,78.30
2023-05-10T17:50:15.994Z,79.00
2023-05-10T17:52:43.673Z,78.40
2023-05-10T17:55:12.096Z,78.50
2023-05-10T17:57:39.823Z,78.50
2023-05-10T18:00:09.443Z,78.30
2023-05-10T18:02:37.419Z,78.40
2023-05-10T18:05:05.696Z,78.30
2023-05-10T18:07:33.408Z,78.40
2023-05-10T18:10:01.362Z,78.30
2023-05-10T18:12:28.975Z,78.40
2023-05-10T18:14:56.500Z,78.40
2023-05-10T18:17:24.025Z,78.60
2023-05-10T18:19:51.742Z,78.70
2023-05-10T18:22:19.281Z,78.80
2023-05-10T18:24:47.375Z,78.70
2023-05-10T18:27:15.022Z,78.80
2023-05-10T18:29:42.576Z,78.80
2023-05-10T18:32:10.384Z,78.70
2023-05-10T18:34:37.972Z,78.80
2023-05-10T18:37:07.912Z,78.80
2023-05-10T18:39:36.995Z,78.90
2023-05-10T18:42:08.654Z,78.90
2023-05-10T18:44:39.232Z,78.80
2023-05-10T18:47:07.032Z,78.80
2023-05-10T18:49:34.832Z,78.90
2023-05-10T18:52:02.556Z,78.90
2023-05-10T18:54:30.374Z,78.80
2023-05-10T18:56:59.020Z,78.80
2023-05-10T18:59:28.125Z,78.90
2023-05-10T19:01:57.109Z,78.80
2023-05-10T19:04:25.233Z,78.90
2023-05-10T19:06:53.243Z,78.90
2023-05-10T19:09:21.372Z,78.90
2023-05-10T19:11:49.020Z,78.90
2023-05-10T19:14:16.618Z,78.80
2023-05-10T19:16:44.538Z,78.90
2023-05-10T19:19:12.350Z,78.80
2023-05-10T19:21:41.151Z,78.80
2023-05-10T19:24:08.805Z,78.70
2023-05-10T19:26:37.083Z,78.70
2023-05-10T19:29:05.243Z,78.70
2023-05-10T19:31:33.859Z,78.90
2023-05-10T19:34:01.588Z,78.70
2023-05-10T19:36:29.100Z,78.70
2023-05-10T19:38:57.035Z,78.60
2023-05-10T19:41:24.592Z,78.60
2023-05-10T19:43:52.120Z,78.70
2023-05-10T19:46:20.356Z,78.60
2023-05-10T19:48:49.348Z,78.50
2023-05-10T19:51:16.828Z,78.70
2023-05-10T19:53:45.123Z,78.60
2023-05-10T19:56:13.494Z,78.60
2023-05-10T19:58:41.432Z,78.70
2023-05-10T20:01:09.007Z,78.70
2023-05-10T20:03:36.796Z,78.60
2023-05-10T20:06:04.592Z,78.70
2023-05-10T20:08:32.154Z,78.50
2023-05-10T20:11:02.650Z,78.60
2023-05-10T20:13:30.233Z,78.70
2023-05-10T20:15:59.867Z,78.70
2023-05-10T20:18:27.727Z,78.60
2023-05-10T20:20:56.230Z,78.70
2023-05-10T20:23:23.832Z,78.60
2023-05-10T20:25:51.451Z,78.60
2023-05-10T20:28:23.973Z,78.70
2023-05-10T20:30:54.282Z,78.70
2023-05-10T20:33:22.805Z,78.60
2023-05-10T20:35:51.603Z,78.70
2023-05-10T20:38:19.229Z,78.70
2023-05-10T20:40:47.535Z,78.40
2023-05-10T20:43:15.073Z,78.70
2023-05-10T20:45:42.717Z,78.70
2023-05-10T20:48:10.520Z,78.50
2023-05-10T20:50:37.997Z,78.50
2023-05-10T20:53:05.582Z,78.70
2023-05-10T20:55:33.205Z,78.60
2023-05-10T20:58:02.204Z,78.60
2023-05-10T21:00:31.793Z,78.70
2023-05-10T21:02:59.363Z,78.70
2023-05-10T21:05:27.262Z,78.70
2023-05-10T21:07:55.096Z,78.60
2023-05-10T21:10:22.751Z,78.50
2023-05-10T21:12:50.264Z,78.40
2023-05-10T21:15:18.005Z,78.60
2023-05-10T21:17:46.075Z,78.60
2023-05-10T21:20:14.208Z,78.60
2023-05-10T21:22:41.960Z,78.70
2023-05-10T21:25:09.956Z,78.60
2023-05-10T21:27:37.684Z,78.70
2023-05-10T21:30:06.070Z,78.80
2023-05-10T21:32:33.645Z,78.80
2023-05-10T21:35:01.186Z,78.60
2023-05-10T21:37:28.663Z,78.60
2023-05-10T21:39:56.184Z,78.50
2023-05-10T21:42:23.695Z,78.50
2023-05-10T21:44:51.288Z,78.80
2023-05-10T21:47:18.878Z,78.60
2023-05-10T21:49:46.419Z,78.70
2023-05-10T21:52:14.051Z,78.70
2023-05-10T21:54:42.142Z,78.60
2023-05-10T21:57:09.659Z,78.60
2023-05-10T21:59:37.161Z,78.70
2023-05-10T22:02:04.712Z,78.50
2023-05-10T22:04:32.373Z,78.60
2023-05-10T22:06:59.879Z,78.60
2023-05-10T22:09:27.344Z,78.70
2023-05-10T22:11:54.905Z,78.60
2023-05-10T22:14:23.227Z,78.70
2023-05-10T22:16:50.894Z,78.40
2023-05-10T22:19:18.521Z,78.50
2023-05-10T22:21:46.095Z,78.60
2023-05-10T22:24:13.765Z,78.70
2023-05-10T22:26:41.354Z,78.60
2023-05-10T22:29:12.026Z,78.60
2023-05-10T22:31:39.657Z,78.60
2023-05-10T22:34:07.281Z,78.50
2023-05-10T22:36:34.784Z,78.50
2023-05-10T22:39:02.587Z,78.60
2023-05-10T22:41:30.120Z,78.50
2023-05-10T22:43:57.595Z,78.70
2023-05-10T22:46:25.182Z,78.50
2023-05-10T22:48:53.433Z,78.60
2023-05-10T22:51:21.448Z,78.50
2023-05-10T22:53:48.980Z,78.50
2023-05-10T22:56:16.664Z,78.70
2023-05-10T22:58:44.241Z,79.30
2023-05-10T23:01:11.769Z,78.50
2023-05-10T23:03:42.410Z,78.50
2023-05-10T23:06:10.297Z,78.50
2023-05-10T23:08:37.779Z,78.60
2023-05-10T23:11:05.431Z,78.50
2023-05-10T23:13:32.990Z,78.70
2023-05-10T23:16:06.623Z,78.90
2023-05-10T23:18:34.470Z,78.70
2023-05-10T23:21:01.989Z,78.50
2023-05-10T23:23:29.568Z,78.50
2023-05-10T23:25:57.315Z,78.50
2023-05-10T23:28:24.804Z,78.60
2023-05-10T23:30:59.068Z,78.60
2023-05-10T23:33:27.138Z,78.50
2023-05-10T23:35:57.481Z,78.70
2023-05-10T23:38:24.994Z,78.70
2023-05-10T23:40:52.555Z,78.70
2023-05-10T23:43:21.049Z,78.70
2023-05-10T23:45:56.951Z,78.70
2023-05-10T23:48:24.668Z,78.50
2023-05-10T23:50:52.214Z,78.60
2023-05-10T23:53:20.044Z,78.40
2023-05-10T23:55:47.600Z,79.30
2023-05-10T23:58:15.165Z,78.60
